Time;durP1;ratioP1;P1;durP2;ratioP2;P2;SDS_P1;SDS_P2;PMS_P1;PMS_P2;Temp;Humidity;BMP_temperature;BMP_pressure;BME280_temperature;BME280_humidity;BME280_pressure;Samples;Min_cycle;Max_cycle;Signal;HPM_P1;HPM_P2
2022/02/07 00:01:05;;;;;;;2.88;0.20;;;3.50;99.90;;;;;;5061956;28;20028;-75
2022/02/07 00:03:41;;;;;;;1.73;0.50;;;3.50;99.90;;;;;;5062070;28;20094;-75
2022/02/07 00:06:07;;;;;;;2.30;0.32;;;3.40;99.90;;;;;;5061968;28;20532;-75
2022/02/07 00:08:34;;;;;;;2.05;0.20;;;3.40;99.90;;;;;;5061020;28;20108;-75
2022/02/07 00:11:00;;;;;;;3.72;0.40;;;3.40;99.90;;;;;;5060968;28;20040;-75
2022/02/07 00:13:25;;;;;;;5.43;0.47;;;3.40;99.90;;;;;;5061943;28;20025;-75
2022/02/07 00:15:51;;;;;;;2.55;0.60;;;3.40;99.90;;;;;;5062034;28;20546;-75
2022/02/07 00:18:17;;;;;;;3.97;0.70;;;3.30;99.90;;;;;;5062000;28;20512;-75
2022/02/07 00:20:42;;;;;;;5.15;2.15;;;3.30;99.90;;;;;;5062199;28;20036;-75
2022/02/07 00:23:08;;;;;;;4.60;0.45;;;3.30;99.90;;;;;;5060937;28;20174;-75
2022/02/07 00:25:34;;;;;;;3.60;0.90;;;3.20;99.90;;;;;;5060882;28;20146;-75
2022/02/07 00:28:00;;;;;;;3.67;0.40;;;3.20;99.90;;;;;;5061037;28;20024;-75
2022/02/07 00:30:26;;;;;;;;;;;3.10;99.90;;;;;;5060175;28;20543;-75
2022/02/07 00:32:51;;;;;;;2.75;0.38;;;3.10;99.90;;;;;;5060302;28;19915;-75
2022/02/07 00:35:20;;;;;;;1.45;0.40;;;3.10;99.90;;;;;;5061778;28;20036;-75
2022/02/07 00:37:49;;;;;;;2.28;0.77;;;3.10;99.90;;;;;;5060885;28;20067;-75
2022/02/07 00:40:31;;;;;;;1.45;0.70;;;3.10;99.90;;;;;;5061347;28;20032;-75
2022/02/07 00:43:01;;;;;;;5.80;0.60;;;3.00;99.90;;;;;;5059336;28;20393;-75
2022/02/07 00:48:00;;;;;;;3.13;0.43;;;2.80;99.90;;;;;;5060359;28;20032;-75
2022/02/07 00:50:27;;;;;;;2.70;0.70;;;2.80;99.90;;;;;;5061122;28;20021;-75
2022/02/07 00:52:53;;;;;;;0.63;0.40;;;2.70;99.90;;;;;;5059200;28;20033;-74
2022/02/07 00:55:18;;;;;;;8.30;0.73;;;2.70;99.90;;;;;;5060889;28;20032;-74
2022/02/07 00:57:44;;;;;;;4.38;0.85;;;2.60;99.90;;;;;;5060103;28;20036;-74
2022/02/07 01:00:10;;;;;;;1.23;0.43;;;2.60;99.90;;;;;;5059312;28;20028;-74
2022/02/07 01:02:36;;;;;;;4.93;0.43;;;2.60;99.90;;;;;;5061031;28;20112;-75
2022/02/07 01:05:03;;;;;;;7.50;0.80;;;2.60;99.90;;;;;;5058462;28;20057;-75
2022/02/07 01:07:30;;;;;;;2.35;0.60;;;2.60;99.90;;;;;;5061472;28;20029;-74
2022/02/07 01:09:56;;;;;;;2.90;0.77;;;2.50;99.90;;;;;;5061587;28;20032;-74
2022/02/07 01:12:38;;;;;;;1.83;0.30;;;2.50;99.90;;;;;;5061394;28;20140;-74
2022/02/07 01:15:26;;;;;;;4.60;0.70;;;2.50;99.90;;;;;;5061881;28;20490;-74
2022/02/07 01:55:49;;;;;;;;;;;2.80;99.90;;;;;;5018093;28;20033;-74
2022/02/07 01:58:16;;;;;;;9.15;0.75;;;2.80;99.90;;;;;;5040895;28;19909;-74
2022/02/07 02:00:43;;;;;;;2.80;0.70;;;2.80;99.90;;;;;;5059519;28;20016;-74
2022/02/07 02:03:09;;;;;;;7.13;0.52;;;2.70;99.90;;;;;;5057211;28;20048;-74
2022/02/07 02:05:36;;;;;;;2.42;0.70;;;2.70;99.90;;;;;;5059583;28;20112;-74
2022/02/07 02:08:10;;;;;;;1.48;0.50;;;2.70;99.90;;;;;;5059445;28;20067;-74
2022/02/07 02:10:39;;;;;;;5.43;0.82;;;2.60;99.90;;;;;;5059001;28;20430;-73
2022/02/07 02:13:19;;;;;;;2.80;0.70;;;2.50;99.90;;;;;;5059279;28;20551;-74
2022/02/07 02:16:09;;;;;;;3.92;0.50;;;2.50;99.90;;;;;;5058657;28;20074;-73
2022/02/07 02:37:21;;;;;;;8.32;1.33;;;2.50;99.90;;;;;;5057717;28;20020;-74
2022/02/07 02:47:54;;;;;;;5.90;1.10;;;2.60;99.90;;;;;;5059296;28;20440;-74
2022/02/07 02:50:35;;;;;;;2.15;0.75;;;2.60;99.90;;;;;;5058025;28;20028;-74
2022/02/07 02:53:10;;;;;;;5.18;0.77;;;2.50;99.90;;;;;;5057829;28;20120;-74
2022/02/07 02:55:37;;;;;;;3.08;0.70;;;2.50;99.90;;;;;;5059028;28;20040;-74
2022/02/07 02:58:04;;;;;;;7.53;1.13;;;2.50;99.90;;;;;;5059401;28;20390;-74
2022/02/07 03:00:30;;;;;;;6.05;0.80;;;2.50;99.90;;;;;;5056770;28;20052;-74
2022/02/07 03:02:56;;;;;;;;;;;2.60;99.90;;;;;;5059121;28;20029;-74
2022/02/07 03:05:22;;;;;;;6.28;1.20;;;2.60;99.90;;;;;;5057886;28;19919;-74
2022/02/07 03:07:48;;;;;;;3.25;1.33;;;2.60;99.90;;;;;;5058601;28;20024;-74
2022/02/07 03:10:23;;;;;;;5.95;0.60;;;2.70;99.90;;;;;;5057760;28;20043;-74
2022/02/07 03:13:02;;;;;;;5.78;0.98;;;2.70;99.90;;;;;;5057070;28;20052;-74
2022/02/07 03:18:11;;;;;;;5.50;0.77;;;2.70;99.90;;;;;;5057206;28;20500;-74
2022/02/07 03:20:37;;;;;;;3.20;0.77;;;2.70;99.90;;;;;;5058063;28;20029;-74
2022/02/07 03:23:02;;;;;;;4.60;0.63;;;2.70;99.90;;;;;;5058751;28;20056;-74
2022/02/07 03:25:28;;;;;;;7.15;0.90;;;2.70;99.90;;;;;;5057235;28;20021;-74
2022/02/07 03:27:53;;;;;;;;;;;2.70;99.90;;;;;;5058364;28;20052;-74
2022/02/07 03:30:19;;;;;;;4.57;0.85;;;2.70;99.90;;;;;;5056860;28;20395;-74
2022/02/07 03:32:44;;;;;;;5.15;0.73;;;2.70;99.90;;;;;;5056627;28;20481;-73
2022/02/07 03:35:10;;;;;;;2.13;0.82;;;2.70;99.90;;;;;;5057948;28;20222;-73
2022/02/07 03:37:35;;;;;;;4.60;0.93;;;2.80;99.90;;;;;;5057509;28;20143;-73
2022/02/07 03:40:01;;;;;;;4.13;0.70;;;2.80;99.90;;;;;;5057228;28;20036;-74
2022/02/07 03:42:27;;;;;;;7.95;1.00;;;2.80;99.90;;;;;;5057299;28;20086;-73
2022/02/07 03:44:52;;;;;;;1.67;0.57;;;2.80;99.90;;;;;;5056083;28;20048;-73
2022/02/07 03:47:18;;;;;;;6.50;0.60;;;2.80;99.90;;;;;;5056597;28;20032;-73
2022/02/07 03:49:43;;;;;;;5.28;0.85;;;2.80;99.90;;;;;;5058297;28;20179;-73
2022/02/07 03:52:09;;;;;;;5.22;1.02;;;2.70;99.90;;;;;;5057642;28;20075;-73
2022/02/07 03:54:35;;;;;;;2.42;0.80;;;2.70;99.90;;;;;;5057317;28;20177;-73
2022/02/07 03:57:02;;;;;;;9.25;0.80;;;2.70;99.90;;;;;;5058731;28;20033;-73
2022/02/07 03:59:27;;;;;;;3.53;1.02;;;2.70;99.90;;;;;;5056878;28;20087;-73
2022/02/07 04:01:53;;;;;;;3.90;0.73;;;2.70;99.90;;;;;;5055233;28;20032;-74
2022/02/07 04:04:18;;;;;;;3.53;1.23;;;2.70;99.90;;;;;;5057713;28;20017;-74
2022/02/07 04:06:44;;;;;;;3.88;0.55;;;2.70;99.90;;;;;;5057693;28;20377;-74
2022/02/07 04:09:12;;;;;;;11.00;1.98;;;2.70;99.90;;;;;;5057561;28;20024;-74
2022/02/07 04:11:46;;;;;;;3.78;0.98;;;2.70;99.90;;;;;;5057391;28;20047;-74
2022/02/07 04:14:19;;;;;;;4.88;0.68;;;2.70;99.90;;;;;;5061100;28;20372;-74
2022/02/07 04:16:44;;;;;;;4.53;1.05;;;2.70;99.90;;;;;;5060453;28;20448;-74
2022/02/07 04:19:57;;;;;;;4.45;0.63;;;2.80;99.90;;;;;;5060945;28;20028;-73
2022/02/07 04:21:59;;;;;;;2.67;1.10;;;2.80;99.90;;;;;;5047758;28;20036;-73
2022/02/07 04:24:24;;;;;;;6.07;1.38;;;2.80;99.90;;;;;;5061345;28;20024;-74
2022/02/07 04:26:50;;;;;;;2.60;0.50;;;2.80;99.90;;;;;;5062448;28;20029;-74
2022/02/07 04:29:15;;;;;;;;;;;2.80;99.90;;;;;;5061631;28;20017;-74
2022/02/07 04:31:41;;;;;;;1.52;0.57;;;2.80;99.90;;;;;;5060056;28;19908;-74
2022/02/07 04:34:06;;;;;;;4.70;1.38;;;2.80;99.90;;;;;;5061092;28;20028;-73
2022/02/07 04:36:32;;;;;;;3.28;0.60;;;2.80;99.90;;;;;;5061637;28;20111;-73
2022/02/07 04:38:57;;;;;;;8.23;1.15;;;2.80;99.90;;;;;;5059807;28;20025;-73
2022/02/07 04:41:24;;;;;;;5.20;0.98;;;2.80;99.90;;;;;;5059247;28;20493;-75
2022/02/07 04:43:58;;;;;;;4.65;1.08;;;2.70;99.90;;;;;;5059700;28;20039;-75
2022/02/07 04:51:48;;;;;;;11.50;1.45;;;2.50;99.90;;;;;;5060719;28;20067;-75
2022/02/07 04:54:34;;;;;;;5.13;0.70;;;2.40;99.90;;;;;;5060974;28;20036;-75
2022/02/07 05:05:25;;;;;;;5.35;0.43;;;2.60;99.90;;;;;;5058423;28;20508;-77
2022/02/07 05:15:58;;;;;;;4.22;1.02;;;2.70;99.90;;;;;;5059060;28;20397;-78
2022/02/07 05:18:26;;;;;;;7.78;1.02;;;2.70;99.90;;;;;;5042504;28;20029;-79
2022/02/07 05:20:52;;;;;;;5.88;0.70;;;2.70;99.90;;;;;;5060283;28;20033;-77
2022/02/07 05:23:17;;;;;;;4.20;0.77;;;2.60;99.90;;;;;;5061063;28;20032;-78
2022/02/07 05:25:43;;;;;;;8.43;1.10;;;2.60;99.90;;;;;;5060309;28;20040;-77
2022/02/07 05:28:08;;;;;;;7.22;1.35;;;2.60;99.90;;;;;;5058236;28;20405;-78
2022/02/07 05:30:34;;;;;;;4.32;3.10;;;2.70;99.90;;;;;;5059371;28;20037;-72
2022/02/07 05:32:59;;;;;;;5.43;0.82;;;2.80;99.90;;;;;;5059227;28;20047;-74
2022/02/07 05:35:25;;;;;;;8.02;0.80;;;2.90;99.90;;;;;;5061138;28;20029;-77
2022/02/07 05:37:50;;;;;;;5.93;0.95;;;2.90;99.90;;;;;;5060920;28;20496;-77
2022/02/07 05:40:28;;;;;;;4.97;1.10;;;3.00;99.90;;;;;;5061139;28;20032;-77
2022/02/07 05:42:53;;;;;;;4.88;0.90;;;3.10;99.90;;;;;;5059484;28;20078;-76
2022/02/07 05:45:19;;;;;;;4.53;1.15;;;3.10;99.90;;;;;;5060668;28;20123;-77
2022/02/07 05:47:44;;;;;;;7.70;1.25;;;3.20;99.90;;;;;;5062400;28;20376;-76
2022/02/07 05:50:10;;;;;;;7.30;1.30;;;3.20;99.90;;;;;;5057789;28;20035;-76
2022/02/07 05:52:36;;;;;;;9.00;1.25;;;3.20;99.90;;;;;;5060282;28;20465;-77
2022/02/07 05:55:01;;;;;;;11.80;1.00;;;3.20;99.90;;;;;;5060448;28;20535;-78
2022/02/07 05:57:27;;;;;;;7.03;2.13;;;3.30;99.90;;;;;;5061898;28;20060;-78
2022/02/07 05:59:52;;;;;;;6.32;0.98;;;3.30;99.90;;;;;;5059199;28;20477;-79
2022/02/07 06:02:18;;;;;;;6.78;1.08;;;3.30;99.90;;;;;;5060389;28;20595;-77
2022/02/07 06:04:43;;;;;;;5.93;1.30;;;3.40;99.90;;;;;;5059862;28;20032;-79
2022/02/07 06:07:09;;;;;;;11.20;2.08;;;3.50;99.90;;;;;;5060512;28;20036;-79
2022/02/07 06:09:34;;;;;;;15.65;4.18;;;3.50;99.90;;;;;;5057276;28;20047;-78
2022/02/07 06:12:00;;;;;;;10.65;1.60;;;3.60;99.90;;;;;;5057315;28;20437;-79
2022/02/07 06:14:25;;;;;;;9.18;1.60;;;3.60;99.90;;;;;;5056534;28;20074;-79
2022/02/07 06:16:51;;;;;;;13.20;2.10;;;3.60;99.90;;;;;;5057624;28;20078;-79
2022/02/07 06:19:17;;;;;;;4.70;1.50;;;3.60;99.90;;;;;;5058989;28;20443;-79
2022/02/07 06:21:43;;;;;;;11.07;2.35;;;3.60;99.90;;;;;;5059183;28;20060;-79
2022/02/07 06:24:09;;;;;;;10.68;1.23;;;3.60;99.90;;;;;;5058140;28;20497;-78
2022/02/07 06:26:35;;;;;;;11.68;3.67;;;3.60;99.90;;;;;;5058390;28;20028;-78
2022/02/07 06:29:01;;;;;;;8.95;1.67;;;3.60;99.90;;;;;;5040006;28;20043;-78
2022/02/07 06:31:26;;;;;;;;;;;3.50;99.90;;;;;;5058724;28;20017;-78
2022/02/07 06:33:52;;;;;;;6.47;2.15;;;3.50;99.90;;;;;;5057102;28;19919;-78
2022/02/07 06:36:18;;;;;;;6.22;1.73;;;3.50;99.90;;;;;;5057871;28;20020;-78
2022/02/07 06:38:44;;;;;;;;;;;3.50;99.90;;;;;;5059989;28;20062;-77
2022/02/07 06:41:10;;;;;;;7.82;2.20;;;3.50;99.90;;;;;;5059102;28;20431;-78
2022/02/07 06:43:35;;;;;;;11.75;1.63;;;3.50;99.90;;;;;;5059970;28;20500;-78
2022/02/07 06:46:01;;;;;;;7.13;1.52;;;3.50;99.90;;;;;;5058720;28;20028;-78
2022/02/07 06:48:27;;;;;;;8.45;1.73;;;3.50;99.90;;;;;;5059028;28;20427;-78
2022/02/07 06:50:53;;;;;;;12.05;1.30;;;3.50;99.90;;;;;;5057679;28;20035;-78
2022/02/07 06:53:18;;;;;;;10.88;1.50;;;3.40;99.90;;;;;;5058258;28;20470;-78
2022/02/07 06:55:45;;;;;;;13.07;2.25;;;3.40;99.90;;;;;;5059328;28;20056;-78
2022/02/07 06:58:11;;;;;;;8.13;2.00;;;3.40;99.90;;;;;;5058601;28;20031;-78
2022/02/07 07:00:36;;;;;;;12.25;1.55;;;3.40;99.90;;;;;;5058433;28;20037;-78
2022/02/07 07:03:02;;;;;;;10.88;2.85;;;3.40;99.90;;;;;;5059052;28;20443;-78
2022/02/07 07:05:28;;;;;;;12.70;2.88;;;3.50;99.90;;;;;;5059316;28;20016;-78
2022/02/07 07:07:53;;;;;;;;;;;3.50;99.90;;;;;;5059504;28;20247;-82
2022/02/07 07:10:19;;;;;;;9.18;2.15;;;3.50;99.90;;;;;;5058459;28;19904;-80
2022/02/07 07:12:48;;;;;;;12.77;2.03;;;3.50;99.90;;;;;;5056653;28;20480;-79
2022/02/07 07:15:29;;;;;;;9.73;2.13;;;3.60;99.90;;;;;;5056793;28;20482;-80
2022/02/07 07:17:55;;;;;;;15.93;3.35;;;3.60;99.90;;;;;;5057601;28;20029;-77
2022/02/07 07:20:20;;;;;;;14.73;3.30;;;3.60;99.90;;;;;;5059172;28;20036;-77
2022/02/07 07:22:46;;;;;;;5.45;1.35;;;3.60;99.90;;;;;;5058696;28;20037;-78
2022/02/07 07:25:16;;;;;;;15.93;3.03;;;3.50;99.90;;;;;;5058379;28;20095;-78
2022/02/07 07:28:03;;;;;;;9.48;1.90;;;3.50;99.90;;;;;;5059276;28;20057;-78
2022/02/07 07:30:33;;;;;;;7.65;1.73;;;3.40;99.90;;;;;;5057622;28;20032;-78
2022/02/07 07:33:03;;;;;;;8.52;2.55;;;3.40;99.90;;;;;;5058778;28;20554;-78
2022/02/07 07:35:29;;;;;;;8.98;1.08;;;3.40;99.90;;;;;;5057181;28;20029;-79
2022/02/07 07:37:55;;;;;;;9.23;1.33;;;3.30;99.90;;;;;;5058092;28;20029;-78
2022/02/07 07:40:21;;;;;;;6.03;1.60;;;3.30;99.90;;;;;;5057073;28;20036;-78
2022/02/07 07:42:52;;;;;;;6.47;1.42;;;3.30;99.90;;;;;;5058060;28;20036;-79
2022/02/07 07:45:21;;;;;;;7.18;1.45;;;3.30;99.90;;;;;;5058458;28;20032;-79
2022/02/07 07:47:48;;;;;;;11.70;1.85;;;3.30;99.90;;;;;;5058123;28;20028;-79
2022/02/07 07:50:22;;;;;;;6.65;1.58;;;3.40;99.90;;;;;;5061746;28;20074;-81
2022/02/07 08:03:20;;;;;;;4.40;0.95;;;3.40;99.90;;;;;;5062137;28;20186;-90
2022/02/07 08:05:55;;;;;;;7.20;1.88;;;3.40;99.90;;;;;;5061254;28;20485;-89
2022/02/07 08:08:33;;;;;;;2.17;0.45;;;3.40;99.90;;;;;;5062403;28;20116;-88
2022/02/07 08:11:03;;;;;;;2.65;0.40;;;3.40;99.90;;;;;;5061165;28;20075;-86
2022/02/07 08:13:31;;;;;;;3.40;0.88;;;3.40;99.90;;;;;;5061295;28;20032;-81
2022/02/07 08:15:57;;;;;;;11.15;1.95;;;3.40;99.90;;;;;;5062489;28;20028;-81
2022/02/07 08:18:22;;;;;;;11.52;0.98;;;3.50;99.90;;;;;;5062028;28;20016;-83
2022/02/07 08:20:48;;;;;;;6.97;0.80;;;3.50;99.90;;;;;;5059425;28;20090;-83
2022/02/07 08:23:13;;;;;;;7.22;0.98;;;3.50;99.90;;;;;;5061487;28;20052;-80
2022/02/07 08:25:39;;;;;;;7.15;1.27;;;3.60;99.90;;;;;;5060415;28;20595;-82
2022/02/07 08:28:06;;;;;;;;;;;3.60;99.90;;;;;;5062374;28;20029;-78
2022/02/07 08:30:32;;;;;;;12.87;1.73;;;3.70;99.90;;;;;;5061064;28;19973;-79
2022/02/07 08:33:00;;;;;;;8.75;2.42;;;3.70;99.90;;;;;;5061852;28;20115;-82
2022/02/07 08:35:25;;;;;;;7.43;1.92;;;3.80;99.90;;;;;;5059358;28;20123;-83
2022/02/07 08:37:51;;;;;;;13.82;2.60;;;3.80;99.90;;;;;;5061548;28;20115;-85
2022/02/07 08:40:17;;;;;;;12.27;4.00;;;3.90;99.90;;;;;;5061846;28;20036;-85
2022/02/07 08:42:43;;;;;;;17.20;1.73;;;4.00;99.90;;;;;;5061741;28;20107;-85
2022/02/07 08:45:09;;;;;;;7.65;1.90;;;4.00;99.90;;;;;;5061688;28;20020;-86
2022/02/07 08:47:35;;;;;;;10.40;3.03;;;4.10;99.90;;;;;;5061988;28;20032;-86
2022/02/07 08:50:00;;;;;;;9.02;1.50;;;4.10;99.90;;;;;;5060716;28;20473;-77
2022/02/07 08:52:26;;;;;;;10.55;1.77;;;4.20;99.90;;;;;;5060281;28;20047;-76
2022/02/07 08:54:53;;;;;;;9.25;1.92;;;4.30;99.90;;;;;;5061193;28;20111;-77
2022/02/07 08:57:29;;;;;;;16.00;3.50;;;4.30;99.90;;;;;;5061218;28;20032;-86
2022/02/07 09:00:05;;;;;;;13.65;2.53;;;4.40;99.90;;;;;;5060586;28;20446;-87
2022/02/07 09:07:36;;;;;;;5.72;1.90;;;4.50;99.90;;;;;;5060308;28;20457;-87
2022/02/07 09:10:03;;;;;;;8.90;2.00;;;4.60;99.90;;;;;;5060070;28;20036;-87
2022/02/07 09:12:28;;;;;;;11.88;2.92;;;4.70;99.90;;;;;;5059771;28;20017;-87
2022/02/07 09:15:03;;;;;;;11.48;3.25;;;4.70;99.90;;;;;;5060241;28;20039;-86
2022/02/07 09:17:29;;;;;;;11.30;1.40;;;4.80;99.90;;;;;;5060936;28;20040;-87
2022/02/07 09:19:54;;;;;;;5.35;1.35;;;4.80;99.90;;;;;;5042276;28;20463;-86
2022/02/07 09:22:20;;;;;;;6.38;1.67;;;4.90;99.90;;;;;;5060961;28;20523;-86
2022/02/07 09:24:45;;;;;;;13.95;3.45;;;5.00;99.90;;;;;;5060068;28;20039;-78
2022/02/07 09:27:11;;;;;;;8.02;1.60;;;5.10;99.90;;;;;;5060550;28;20029;-76
2022/02/07 09:29:37;;;;;;;11.85;1.45;;;5.10;99.90;;;;;;5059683;28;20043;-75
2022/02/07 09:32:03;;;;;;;10.73;2.10;;;5.10;99.90;;;;;;5059932;28;20037;-75
2022/02/07 09:34:29;;;;;;;9.95;2.03;;;5.10;99.90;;;;;;5060243;28;20017;-75
2022/02/07 09:36:56;;;;;;;10.32;1.83;;;5.00;99.90;;;;;;5059482;28;20063;-76
2022/02/07 09:39:30;;;;;;;12.15;2.25;;;5.10;99.90;;;;;;5061211;28;20021;-78
2022/02/07 09:41:57;;;;;;;7.50;1.80;;;5.10;99.90;;;;;;5059965;28;20107;-79
2022/02/07 09:44:23;;;;;;;11.93;2.33;;;5.10;99.90;;;;;;5059325;28;20425;-81
2022/02/07 09:46:48;;;;;;;11.10;1.50;;;5.10;99.90;;;;;;5059166;28;20071;-79
2022/02/07 09:49:18;;;;;;;13.38;1.75;;;5.00;99.90;;;;;;5057422;28;20369;-82
2022/02/07 09:51:45;;;;;;;15.60;2.45;;;4.90;99.90;;;;;;5060567;28;20569;-84
2022/02/07 09:54:19;;;;;;;13.07;2.40;;;4.90;99.90;;;;;;5059069;28;20112;-84
2022/02/07 09:56:46;;;;;;;8.27;3.35;;;4.80;99.90;;;;;;5058939;28;20060;-85
2022/02/07 09:59:13;;;;;;;18.90;2.75;;;4.90;99.90;;;;;;5059756;28;20024;-86
2022/02/07 10:01:45;;;;;;;29.10;4.03;;;4.90;99.90;;;;;;5059403;28;20043;-80
2022/02/07 10:04:22;;;;;;;18.88;3.03;;;4.80;99.90;;;;;;5058675;28;20020;-77
2022/02/07 10:06:58;;;;;;;20.20;4.13;;;4.70;99.90;;;;;;5060321;28;20224;-80
2022/02/07 10:12:23;;;;;;;9.40;3.00;;;4.70;99.90;;;;;;5058757;28;20515;-81
2022/02/07 10:40:19;;;;;;;13.63;3.53;;;5.30;99.90;;;;;;5057006;28;20040;-78
2022/02/07 10:46:11;;;;;;;23.85;3.75;;;5.50;99.90;;;;;;5037228;28;20040;-87
2022/02/07 10:48:48;;;;;;;22.70;3.22;;;5.60;99.90;;;;;;5046830;28;20596;-84
2022/02/07 10:51:26;;;;;;;18.80;3.85;;;5.70;99.90;;;;;;5059233;28;20122;-84
2022/02/07 10:54:02;;;;;;;11.65;3.40;;;5.80;99.90;;;;;;5058557;28;20540;-85
2022/02/07 10:56:41;;;;;;;20.83;5.55;;;5.90;99.90;;;;;;5060072;28;20408;-88
2022/02/07 10:59:09;;;;;;;21.80;4.82;;;5.90;99.90;;;;;;5060813;28;20035;-84
2022/02/07 11:04:41;;;;;;;13.38;3.15;;;6.10;99.90;;;;;;5059197;28;20408;-87
2022/02/07 11:07:10;;;;;;;22.65;3.95;;;6.30;99.90;;;;;;5058467;28;20540;-88
2022/02/07 11:10:05;;;;;;;21.45;3.60;;;6.40;99.90;;;;;;5059011;28;20047;-83
2022/02/07 11:15:07;;;;;;;14.07;2.63;;;6.60;99.90;;;;;;5057543;28;20029;-83
2022/02/07 11:20:52;;;;;;;13.35;3.65;;;6.70;99.90;;;;;;5054344;28;20032;-80
2022/02/07 11:23:26;;;;;;;22.70;3.63;;;6.70;99.90;;;;;;5046801;28;20374;-82
2022/02/07 11:26:08;;;;;;;15.35;4.28;;;6.70;99.90;;;;;;5064268;28;20032;-83
2022/02/07 11:28:42;;;;;;;13.15;2.78;;;6.70;99.90;;;;;;5063312;28;20579;-80
2022/02/07 11:31:08;;;;;;;11.70;1.35;;;6.60;99.70;;;;;;5064544;28;20369;-79
2022/02/07 11:33:54;;;;;;;8.00;1.95;;;6.40;98.90;;;;;;5065590;28;20667;-79
2022/02/07 11:36:46;;;;;;;4.50;1.13;;;6.10;98.90;;;;;;5064817;28;20439;-79
2022/02/07 11:39:13;;;;;;;7.38;1.80;;;5.90;99.40;;;;;;5062626;28;20108;-79
2022/02/07 11:41:53;;;;;;;7.60;1.58;;;5.70;99.80;;;;;;5064900;28;20029;-80
2022/02/07 11:44:28;;;;;;;13.95;3.17;;;5.40;99.90;;;;;;5064327;28;20567;-77
2022/02/07 11:47:14;;;;;;;12.38;2.17;;;5.20;99.90;;;;;;5065505;28;20481;-78
2022/02/07 11:49:40;;;;;;;4.32;1.27;;;5.00;99.90;;;;;;5064044;28;20032;-81
2022/02/07 11:52:26;;;;;;;4.85;0.80;;;4.80;99.90;;;;;;5063579;28;20037;-78
2022/02/07 11:55:06;;;;;;;9.70;1.30;;;4.60;99.90;;;;;;5063608;28;20393;-79
2022/02/07 11:57:37;;;;;;;5.03;0.85;;;4.60;99.90;;;;;;5064416;28;20029;-78
2022/02/07 12:00:16;;;;;;;5.18;0.50;;;4.60;99.90;;;;;;5063839;28;20032;-81
2022/02/07 12:02:49;;;;;;;7.30;2.30;;;4.70;99.90;;;;;;5063919;28;20070;-80
2022/02/07 12:05:20;;;;;;;5.82;1.23;;;4.80;99.90;;;;;;5065395;28;20024;-76
2022/02/07 12:08:04;;;;;;;7.55;1.88;;;4.90;99.90;;;;;;5061774;28;20052;-78
2022/02/07 12:10:39;;;;;;;18.55;4.68;;;5.00;99.90;;;;;;5063339;28;20033;-77
2022/02/07 12:13:34;;;;;;;15.77;1.98;;;5.10;99.90;;;;;;5064040;28;20393;-77
2022/02/07 12:16:26;;;;;;;14.30;1.65;;;5.20;99.90;;;;;;5063891;28;20059;-77
2022/02/07 12:18:58;;;;;;;12.38;2.13;;;5.20;99.90;;;;;;5062528;28;20029;-76
2022/02/07 12:21:29;;;;;;;9.45;2.30;;;5.40;99.90;;;;;;5064457;28;20050;-76
2022/02/07 12:23:56;;;;;;;14.30;2.47;;;5.50;99.90;;;;;;5063277;28;20086;-75
2022/02/07 12:26:23;;;;;;;10.23;2.17;;;5.60;99.90;;;;;;5063544;28;20071;-79
2022/02/07 12:28:59;;;;;;;9.77;1.85;;;5.80;99.90;;;;;;5064151;28;20052;-78
2022/02/07 12:31:26;;;;;;;16.88;2.83;;;6.00;99.90;;;;;;5064052;28;20060;-79
2022/02/07 12:34:03;;;;;;;7.28;2.20;;;6.20;99.90;;;;;;5061856;28;20041;-75
2022/02/07 12:36:32;;;;;;;18.42;4.03;;;6.30;99.90;;;;;;5061244;28;20027;-75
2022/02/07 12:38:58;;;;;;;11.63;3.08;;;6.40;99.90;;;;;;5061138;28;20417;-78
2022/02/07 12:41:26;;;;;;;12.68;3.85;;;6.30;99.90;;;;;;5060094;28;20028;-78
2022/02/07 12:43:54;;;;;;;6.57;1.40;;;6.20;99.90;;;;;;5061006;28;20033;-77
2022/02/07 12:46:23;;;;;;;5.03;1.70;;;6.00;99.90;;;;;;5060130;28;20025;-79
2022/02/07 12:48:54;;;;;;;6.78;1.15;;;5.50;99.90;;;;;;5058641;28;20035;-76
2022/02/07 12:51:46;;;;;;;15.63;2.25;;;4.80;99.90;;;;;;5060931;28;20052;-72
2022/02/07 12:54:14;;;;;;;4.35;0.82;;;4.30;99.90;;;;;;5060926;28;20036;-72
2022/02/07 12:56:40;;;;;;;9.90;1.85;;;4.10;99.90;;;;;;5059590;28;20043;-75
2022/02/07 12:59:06;;;;;;;10.52;1.50;;;4.00;99.90;;;;;;5060206;28;20028;-76
2022/02/07 13:01:35;;;;;;;5.90;0.82;;;4.00;99.90;;;;;;5060304;28;20083;-77
2022/02/07 13:04:05;;;;;;;5.57;1.20;;;4.00;99.90;;;;;;5059506;28;20020;-74
2022/02/07 13:06:33;;;;;;;6.72;1.38;;;4.00;99.90;;;;;;5061128;28;20021;-77
2022/02/07 13:09:02;;;;;;;9.38;1.35;;;4.00;99.90;;;;;;5061135;28;20584;-77
2022/02/07 13:11:32;;;;;;;13.50;1.95;;;4.00;99.90;;;;;;5059269;28;20025;-74
2022/02/07 13:13:58;;;;;;;11.43;1.42;;;4.00;99.90;;;;;;5060959;28;20024;-78
2022/02/07 13:16:31;;;;;;;4.60;1.30;;;4.10;99.90;;;;;;5059055;28;20032;-77
2022/02/07 13:19:12;;;;;;;7.15;0.88;;;4.20;99.90;;;;;;5059372;28;20074;-78
2022/02/07 13:21:41;;;;;;;5.35;1.67;;;4.30;99.90;;;;;;5060468;28;20056;-79
2022/02/07 13:24:19;;;;;;;10.30;2.05;;;4.40;99.90;;;;;;5059823;28;20087;-80
2022/02/07 13:26:52;;;;;;;5.65;1.05;;;4.60;99.90;;;;;;5059143;28;20123;-77
2022/02/07 13:29:26;;;;;;;12.27;1.50;;;4.70;99.90;;;;;;5057917;28;20036;-74
2022/02/07 13:31:56;;;;;;;7.93;1.73;;;4.80;99.90;;;;;;5057376;28;20076;-75
2022/02/07 13:34:23;;;;;;;6.78;1.15;;;4.90;99.90;;;;;;5059296;28;20439;-77
2022/02/07 13:36:51;;;;;;;10.05;1.75;;;4.90;99.90;;;;;;5059893;28;20469;-76
2022/02/07 13:39:19;;;;;;;4.05;1.10;;;5.00;99.90;;;;;;5060227;28;20036;-77
2022/02/07 13:42:02;;;;;;;11.00;1.30;;;5.00;99.90;;;;;;5058227;28;20033;-76
2022/02/07 13:44:28;;;;;;;4.53;1.15;;;5.00;99.90;;;;;;5041165;28;20439;-81
2022/02/07 13:46:59;;;;;;;;;;;5.10;99.90;;;;;;5059547;28;20431;-82
2022/02/07 13:49:24;;;;;;;5.65;0.82;;;5.10;99.90;;;;;;5057800;28;20008;-81
2022/02/07 13:51:52;;;;;;;3.92;0.40;;;5.20;99.90;;;;;;5058049;28;20439;-81
2022/02/07 13:54:30;;;;;;;6.90;1.00;;;5.20;99.90;;;;;;5060447;28;20037;-82
2022/02/07 13:57:00;;;;;;;3.38;0.75;;;5.20;99.90;;;;;;5059818;28;20116;-79
2022/02/07 13:59:35;;;;;;;2.92;0.90;;;5.30;99.90;;;;;;5059605;28;20544;-79
2022/02/07 14:02:00;;;;;;;6.38;1.05;;;5.20;99.90;;;;;;5058850;28;20025;-80
2022/02/07 14:04:27;;;;;;;7.43;0.90;;;5.30;99.90;;;;;;5059010;28;20039;-80
2022/02/07 14:07:13;;;;;;;8.65;1.05;;;5.20;99.90;;;;;;5058485;28;20159;-79
2022/02/07 14:09:39;;;;;;;4.05;1.00;;;5.20;99.90;;;;;;5059391;28;20032;-77
2022/02/07 14:12:06;;;;;;;7.07;1.05;;;5.20;99.90;;;;;;5059211;28;20029;-78
2022/02/07 14:14:32;;;;;;;5.55;1.08;;;5.10;99.90;;;;;;5060381;28;20025;-76
2022/02/07 14:16:58;;;;;;;1.10;0.40;;;5.00;99.90;;;;;;5058949;28;20020;-76
2022/02/07 14:19:35;;;;;;;6.28;1.08;;;4.80;99.90;;;;;;5057690;28;20108;-74
2022/02/07 14:22:00;;;;;;;12.45;1.20;;;4.50;99.90;;;;;;5057798;28;20025;-73
2022/02/07 14:24:27;;;;;;;5.25;1.17;;;4.30;99.90;;;;;;5058071;28;20104;-73
2022/02/07 14:26:53;;;;;;;9.30;0.80;;;4.10;99.90;;;;;;5058863;28;20037;-74
2022/02/07 14:29:19;;;;;;;8.60;0.95;;;3.80;99.90;;;;;;5058770;28;20078;-77
2022/02/07 14:31:44;;;;;;;1.50;0.65;;;3.70;99.90;;;;;;5058690;28;20037;-77
2022/02/07 14:34:10;;;;;;;10.27;1.02;;;3.50;99.90;;;;;;5058904;28;20028;-78
2022/02/07 14:36:36;;;;;;;4.97;1.02;;;3.40;99.90;;;;;;5058611;28;20234;-83
2022/02/07 14:39:03;;;;;;;4.15;0.77;;;3.30;99.90;;;;;;5057996;28;20095;-86
2022/02/07 14:41:30;;;;;;;4.00;0.65;;;3.30;99.90;;;;;;5058170;28;20106;-83
2022/02/07 14:44:01;;;;;;;5.00;0.70;;;3.30;99.90;;;;;;5058297;28;20029;-82
2022/02/07 14:46:33;;;;;;;6.35;0.82;;;3.30;99.90;;;;;;5059145;28;20062;-82
2022/02/07 14:48:59;;;;;;;5.10;0.95;;;3.30;99.90;;;;;;5057399;28;20029;-76
2022/02/07 14:51:25;;;;;;;;;;;3.30;99.90;;;;;;5058989;28;20040;-80
2022/02/07 14:53:50;;;;;;;3.80;0.80;;;3.20;99.90;;;;;;5056863;28;19908;-78
2022/02/07 14:56:16;;;;;;;3.47;0.68;;;3.20;99.90;;;;;;5038928;28;20383;-80
2022/02/07 14:58:42;;;;;;;7.85;1.25;;;3.10;99.90;;;;;;5058782;28;20029;-81
2022/02/07 15:01:07;;;;;;;1.90;0.70;;;3.10;99.90;;;;;;5057700;28;20406;-81
2022/02/07 15:03:33;;;;;;;11.90;1.45;;;3.10;99.90;;;;;;5058543;28;20551;-83
2022/02/07 15:05:59;;;;;;;3.00;1.02;;;3.10;99.90;;;;;;5058930;28;20538;-84
2022/02/07 15:08:27;;;;;;;4.55;0.70;;;3.10;99.90;;;;;;5057679;28;20116;-84
2022/02/07 15:10:53;;;;;;;4.50;0.93;;;3.10;99.90;;;;;;5057240;28;20110;-85
2022/02/07 15:13:19;;;;;;;3.95;1.05;;;3.20;99.90;;;;;;5059455;28;20084;-82
2022/02/07 15:15:45;;;;;;;;;;;3.20;99.90;;;;;;5056219;28;20037;-75
2022/02/07 15:18:11;;;;;;;2.30;1.20;;;3.30;99.90;;;;;;5057340;28;20288;-76
2022/02/07 15:20:40;;;;;;;4.97;1.05;;;3.30;99.90;;;;;;5057286;28;20035;-75
2022/02/07 15:23:09;;;;;;;2.90;0.70;;;3.30;99.90;;;;;;5058516;28;20492;-75
2022/02/07 15:25:35;;;;;;;8.60;2.55;;;3.30;99.90;;;;;;5057062;28;20040;-75
2022/02/07 15:28:05;;;;;;;13.80;2.75;;;3.40;99.90;;;;;;5052449;28;20571;-74
2022/02/07 15:30:41;;;;;;;6.95;1.75;;;3.50;99.90;;;;;;5053593;28;20032;-77
2022/02/07 15:33:13;;;;;;;9.00;2.30;;;3.70;99.90;;;;;;5057487;28;20415;-76
2022/02/07 15:35:40;;;;;;;7.00;2.00;;;3.80;99.90;;;;;;5057980;28;20738;-80